sensor_id;sensor_type;location;lat;lon;timestamp;P1;durP1;ratioP1;P2;durP2;ratioP2
11835;SDS011;5977;51.972;7.640;2023-05-29T00:01:45;155.23;;;49.30;;
11835;SDS011;5977;51.972;7.640;2023-05-29T00:04:13;154.70;;;49.20;;
11835;SDS011;5977;51.972;7.640;2023-05-29T00:06:41;155.27;;;49.30;;
11835;SDS011;5977;51.972;7.640;2023-05-29T00:09:11;155.07;;;49.17;;
11835;SDS011;5977;51.972;7.640;2023-05-29T00:11:39;155.00;;;49.27;;
11835;SDS011;5977;51.972;7.640;2023-05-29T00:14:07;154.87;;;49.20;;
11835;SDS011;5977;51.972;7.640;2023-05-29T00:16:39;155.03;;;49.33;;
11835;SDS011;5977;51.972;7.640;2023-05-29T00:19:10;154.47;;;49.07;;
11835;SDS011;5977;51.972;7.640;2023-05-29T00:21:38;154.60;;;49.23;;
11835;SDS011;5977;51.972;7.640;2023-05-29T00:24:06;154.73;;;49.23;;
11835;SDS011;5977;51.972;7.640;2023-05-29T00:26:36;153.43;;;48.67;;
11835;SDS011;5977;51.972;7.640;2023-05-29T00:29:04;154.03;;;48.87;;
11835;SDS011;5977;51.972;7.640;2023-05-29T00:31:32;154.87;;;49.23;;
11835;SDS011;5977;51.972;7.640;2023-05-29T00:34:02;154.33;;;48.97;;
11835;SDS011;5977;51.972;7.640;2023-05-29T00:36:29;153.60;;;49.00;;
11835;SDS011;5977;51.972;7.640;2023-05-29T00:38:58;153.80;;;49.20;;
11835;SDS011;5977;51.972;7.640;2023-05-29T00:41:26;153.57;;;48.57;;
11835;SDS011;5977;51.972;7.640;2023-05-29T00:43:55;153.60;;;48.73;;
11835;SDS011;5977;51.972;7.640;2023-05-29T00:46:23;153.77;;;48.73;;
11835;SDS011;5977;51.972;7.640;2023-05-29T00:48:51;153.40;;;48.87;;
11835;SDS011;5977;51.972;7.640;2023-05-29T00:51:19;153.20;;;48.57;;
11835;SDS011;5977;51.972;7.640;2023-05-29T00:53:48;153.97;;;48.80;;
11835;SDS011;5977;51.972;7.640;2023-05-29T00:56:18;153.03;;;48.37;;
11835;SDS011;5977;51.972;7.640;2023-05-29T00:58:47;153.43;;;48.57;;
11835;SDS011;5977;51.972;7.640;2023-05-29T01:01:18;154.27;;;48.90;;
11835;SDS011;5977;51.972;7.640;2023-05-29T01:03:48;153.67;;;48.70;;
11835;SDS011;5977;51.972;7.640;2023-05-29T01:06:16;153.73;;;48.57;;
11835;SDS011;5977;51.972;7.640;2023-05-29T01:08:45;153.73;;;48.73;;
11835;SDS011;5977;51.972;7.640;2023-05-29T01:11:17;152.87;;;48.47;;
11835;SDS011;5977;51.972;7.640;2023-05-29T01:13:53;153.33;;;48.70;;
11835;SDS011;5977;51.972;7.640;2023-05-29T01:16:26;152.70;;;48.43;;
11835;SDS011;5977;51.972;7.640;2023-05-29T01:19:05;153.23;;;48.57;;
11835;SDS011;5977;51.972;7.640;2023-05-29T01:21:48;153.23;;;48.57;;
11835;SDS011;5977;51.972;7.640;2023-05-29T01:24:26;153.63;;;48.77;;
11835;SDS011;5977;51.972;7.640;2023-05-29T01:27:01;153.40;;;48.63;;
11835;SDS011;5977;51.972;7.640;2023-05-29T01:29:34;152.33;;;48.10;;
11835;SDS011;5977;51.972;7.640;2023-05-29T01:32:04;153.30;;;48.57;;
11835;SDS011;5977;51.972;7.640;2023-05-29T01:34:32;152.47;;;48.10;;
11835;SDS011;5977;51.972;7.640;2023-05-29T01:37:00;153.17;;;48.43;;
11835;SDS011;5977;51.972;7.640;2023-05-29T01:39:28;151.87;;;47.97;;
11835;SDS011;5977;51.972;7.640;2023-05-29T01:41:57;152.30;;;48.20;;
11835;SDS011;5977;51.972;7.640;2023-05-29T01:44:27;153.60;;;48.80;;
11835;SDS011;5977;51.972;7.640;2023-05-29T01:46:57;153.33;;;48.60;;
11835;SDS011;5977;51.972;7.640;2023-05-29T01:49:25;153.23;;;48.67;;
11835;SDS011;5977;51.972;7.640;2023-05-29T01:51:55;153.00;;;48.37;;
11835;SDS011;5977;51.972;7.640;2023-05-29T01:54:23;153.07;;;48.37;;
11835;SDS011;5977;51.972;7.640;2023-05-29T01:56:52;152.70;;;48.23;;
11835;SDS011;5977;51.972;7.640;2023-05-29T01:59:20;152.77;;;48.47;;
11835;SDS011;5977;51.972;7.640;2023-05-29T02:01:50;152.30;;;47.97;;
11835;SDS011;5977;51.972;7.640;2023-05-29T02:04:18;152.53;;;48.23;;
11835;SDS011;5977;51.972;7.640;2023-05-29T02:06:47;152.83;;;48.40;;
11835;SDS011;5977;51.972;7.640;2023-05-29T02:09:16;152.87;;;48.13;;
11835;SDS011;5977;51.972;7.640;2023-05-29T02:11:45;153.17;;;48.43;;
11835;SDS011;5977;51.972;7.640;2023-05-29T02:14:13;151.97;;;48.10;;
11835;SDS011;5977;51.972;7.640;2023-05-29T02:16:41;152.53;;;48.27;;
11835;SDS011;5977;51.972;7.640;2023-05-29T02:19:11;152.23;;;48.13;;
11835;SDS011;5977;51.972;7.640;2023-05-29T02:21:39;152.27;;;48.27;;
11835;SDS011;5977;51.972;7.640;2023-05-29T02:24:07;152.13;;;48.20;;
11835;SDS011;5977;51.972;7.640;2023-05-29T02:26:35;152.20;;;48.13;;
11835;SDS011;5977;51.972;7.640;2023-05-29T02:29:04;153.00;;;48.33;;
11835;SDS011;5977;51.972;7.640;2023-05-29T02:31:33;151.57;;;47.83;;
11835;SDS011;5977;51.972;7.640;2023-05-29T02:34:03;153.07;;;48.33;;
11835;SDS011;5977;51.972;7.640;2023-05-29T02:36:33;152.70;;;48.27;;
11835;SDS011;5977;51.972;7.640;2023-05-29T02:39:03;152.23;;;48.13;;
11835;SDS011;5977;51.972;7.640;2023-05-29T02:41:32;152.53;;;48.40;;
11835;SDS011;5977;51.972;7.640;2023-05-29T02:44:00;152.10;;;48.27;;
11835;SDS011;5977;51.972;7.640;2023-05-29T02:46:28;151.17;;;48.00;;
11835;SDS011;5977;51.972;7.640;2023-05-29T02:48:57;152.07;;;48.33;;
11835;SDS011;5977;51.972;7.640;2023-05-29T02:51:25;151.87;;;48.23;;
11835;SDS011;5977;51.972;7.640;2023-05-29T02:53:55;151.33;;;47.87;;
11835;SDS011;5977;51.972;7.640;2023-05-29T02:56:26;152.20;;;48.47;;
11835;SDS011;5977;51.972;7.640;2023-05-29T02:58:54;152.73;;;48.53;;
11835;SDS011;5977;51.972;7.640;2023-05-29T03:01:22;151.90;;;48.10;;
11835;SDS011;5977;51.972;7.640;2023-05-29T03:03:50;151.77;;;48.20;;
11835;SDS011;5977;51.972;7.640;2023-05-29T03:06:19;152.13;;;48.30;;
11835;SDS011;5977;51.972;7.640;2023-05-29T03:08:47;151.70;;;48.10;;
11835;SDS011;5977;51.972;7.640;2023-05-29T03:11:18;152.00;;;48.23;;
11835;SDS011;5977;51.972;7.640;2023-05-29T03:13:47;151.13;;;47.83;;
11835;SDS011;5977;51.972;7.640;2023-05-29T03:16:16;151.97;;;48.20;;
11835;SDS011;5977;51.972;7.640;2023-05-29T03:18:44;151.57;;;47.97;;
11835;SDS011;5977;51.972;7.640;2023-05-29T03:21:15;151.40;;;47.97;;
11835;SDS011;5977;51.972;7.640;2023-05-29T03:23:43;152.00;;;48.23;;
11835;SDS011;5977;51.972;7.640;2023-05-29T03:26:13;151.50;;;47.67;;
11835;SDS011;5977;51.972;7.640;2023-05-29T03:28:43;152.07;;;48.17;;
11835;SDS011;5977;51.972;7.640;2023-05-29T03:31:11;152.00;;;48.23;;
11835;SDS011;5977;51.972;7.640;2023-05-29T03:33:40;151.90;;;48.17;;
11835;SDS011;5977;51.972;7.640;2023-05-29T03:36:17;151.77;;;48.20;;
11835;SDS011;5977;51.972;7.640;2023-05-29T03:38:45;152.43;;;48.33;;
11835;SDS011;5977;51.972;7.640;2023-05-29T03:41:13;151.80;;;48.20;;
11835;SDS011;5977;51.972;7.640;2023-05-29T03:43:41;151.70;;;48.03;;
11835;SDS011;5977;51.972;7.640;2023-05-29T03:46:10;152.17;;;48.40;;
11835;SDS011;5977;51.972;7.640;2023-05-29T03:48:38;152.33;;;48.40;;
11835;SDS011;5977;51.972;7.640;2023-05-29T03:51:07;151.70;;;48.20;;
11835;SDS011;5977;51.972;7.640;2023-05-29T03:53:36;151.93;;;48.30;;
11835;SDS011;5977;51.972;7.640;2023-05-29T03:56:04;152.10;;;48.30;;
11835;SDS011;5977;51.972;7.640;2023-05-29T03:58:33;151.60;;;47.97;;
11835;SDS011;5977;51.972;7.640;2023-05-29T04:01:02;152.37;;;48.37;;
11835;SDS011;5977;51.972;7.640;2023-05-29T04:03:32;151.57;;;48.27;;
11835;SDS011;5977;51.972;7.640;2023-05-29T04:06:00;151.33;;;48.10;;
11835;SDS011;5977;51.972;7.640;2023-05-29T04:08:28;151.77;;;48.17;;
11835;SDS011;5977;51.972;7.640;2023-05-29T04:10:56;151.10;;;47.83;;
11835;SDS011;5977;51.972;7.640;2023-05-29T04:13:27;151.13;;;47.93;;
11835;SDS011;5977;51.972;7.640;2023-05-29T04:15:55;151.50;;;48.07;;
11835;SDS011;5977;51.972;7.640;2023-05-29T04:18:23;151.93;;;48.33;;
11835;SDS011;5977;51.972;7.640;2023-05-29T04:20:53;151.10;;;47.80;;
11835;SDS011;5977;51.972;7.640;2023-05-29T04:23:21;151.53;;;48.00;;
11835;SDS011;5977;51.972;7.640;2023-05-29T04:25:49;152.30;;;48.50;;
11835;SDS011;5977;51.972;7.640;2023-05-29T04:28:22;151.43;;;47.97;;
11835;SDS011;5977;51.972;7.640;2023-05-29T04:30:51;152.33;;;48.40;;
11835;SDS011;5977;51.972;7.640;2023-05-29T04:33:22;152.10;;;48.43;;
11835;SDS011;5977;51.972;7.640;2023-05-29T04:35:52;152.00;;;48.27;;
11835;SDS011;5977;51.972;7.640;2023-05-29T04:38:20;151.87;;;48.40;;
11835;SDS011;5977;51.972;7.640;2023-05-29T04:40:52;150.70;;;47.80;;
11835;SDS011;5977;51.972;7.640;2023-05-29T04:43:23;151.80;;;48.53;;
11835;SDS011;5977;51.972;7.640;2023-05-29T04:46:00;151.80;;;48.60;;
11835;SDS011;5977;51.972;7.640;2023-05-29T04:48:31;152.53;;;48.93;;
11835;SDS011;5977;51.972;7.640;2023-05-29T04:51:01;152.43;;;48.73;;
11835;SDS011;5977;51.972;7.640;2023-05-29T04:53:29;153.03;;;49.10;;
11835;SDS011;5977;51.972;7.640;2023-05-29T04:55:57;153.37;;;49.10;;
11835;SDS011;5977;51.972;7.640;2023-05-29T04:58:25;153.80;;;49.57;;
11835;SDS011;5977;51.972;7.640;2023-05-29T05:00:53;153.70;;;49.23;;
11835;SDS011;5977;51.972;7.640;2023-05-29T05:03:27;152.57;;;48.73;;
11835;SDS011;5977;51.972;7.640;2023-05-29T05:05:57;154.07;;;49.57;;
11835;SDS011;5977;51.972;7.640;2023-05-29T05:08:26;152.87;;;48.87;;
11835;SDS011;5977;51.972;7.640;2023-05-29T05:10:54;152.50;;;48.53;;
11835;SDS011;5977;51.972;7.640;2023-05-29T05:13:22;152.67;;;48.67;;
11835;SDS011;5977;51.972;7.640;2023-05-29T05:15:51;152.43;;;48.60;;
11835;SDS011;5977;51.972;7.640;2023-05-29T05:18:19;152.33;;;48.47;;
11835;SDS011;5977;51.972;7.640;2023-05-29T05:20:57;151.73;;;48.30;;
11835;SDS011;5977;51.972;7.640;2023-05-29T05:23:27;151.63;;;48.17;;
11835;SDS011;5977;51.972;7.640;2023-05-29T05:25:55;151.87;;;48.43;;
11835;SDS011;5977;51.972;7.640;2023-05-29T05:28:23;151.83;;;48.20;;
11835;SDS011;5977;51.972;7.640;2023-05-29T05:30:51;152.70;;;48.80;;
11835;SDS011;5977;51.972;7.640;2023-05-29T05:33:20;152.50;;;48.70;;
11835;SDS011;5977;51.972;7.640;2023-05-29T05:35:48;152.33;;;48.60;;
11835;SDS011;5977;51.972;7.640;2023-05-29T05:38:16;152.53;;;48.70;;
11835;SDS011;5977;51.972;7.640;2023-05-29T05:40:46;151.83;;;48.37;;
11835;SDS011;5977;51.972;7.640;2023-05-29T05:43:21;152.87;;;48.90;;
11835;SDS011;5977;51.972;7.640;2023-05-29T05:46:01;152.53;;;48.57;;
11835;SDS011;5977;51.972;7.640;2023-05-29T05:48:31;152.20;;;48.83;;
11835;SDS011;5977;51.972;7.640;2023-05-29T05:50:59;151.93;;;48.43;;
11835;SDS011;5977;51.972;7.640;2023-05-29T05:53:27;151.93;;;48.47;;
11835;SDS011;5977;51.972;7.640;2023-05-29T05:55:57;152.23;;;48.63;;
11835;SDS011;5977;51.972;7.640;2023-05-29T05:58:25;151.73;;;48.40;;
11835;SDS011;5977;51.972;7.640;2023-05-29T06:00:54;151.57;;;48.30;;
11835;SDS011;5977;51.972;7.640;2023-05-29T06:03:24;152.07;;;48.57;;
11835;SDS011;5977;51.972;7.640;2023-05-29T06:06:01;152.77;;;48.90;;
11835;SDS011;5977;51.972;7.640;2023-05-29T06:08:29;151.97;;;48.33;;
11835;SDS011;5977;51.972;7.640;2023-05-29T06:10:59;152.20;;;48.63;;
11835;SDS011;5977;51.972;7.640;2023-05-29T06:13:28;151.80;;;48.47;;
11835;SDS011;5977;51.972;7.640;2023-05-29T06:16:03;152.27;;;48.57;;
11835;SDS011;5977;51.972;7.640;2023-05-29T06:18:31;152.17;;;48.67;;
11835;SDS011;5977;51.972;7.640;2023-05-29T06:20:59;151.73;;;48.43;;
11835;SDS011;5977;51.972;7.640;2023-05-29T06:23:29;152.47;;;48.60;;
11835;SDS011;5977;51.972;7.640;2023-05-29T06:25:56;152.53;;;48.83;;
11835;SDS011;5977;51.972;7.640;2023-05-29T06:28:26;151.87;;;48.50;;
11835;SDS011;5977;51.972;7.640;2023-05-29T06:30:55;152.83;;;48.83;;
11835;SDS011;5977;51.972;7.640;2023-05-29T06:33:23;152.47;;;48.87;;
11835;SDS011;5977;51.972;7.640;2023-05-29T06:35:51;151.73;;;48.47;;
11835;SDS011;5977;51.972;7.640;2023-05-29T06:38:20;151.53;;;48.37;;
11835;SDS011;5977;51.972;7.640;2023-05-29T06:40:48;152.63;;;48.93;;
11835;SDS011;5977;51.972;7.640;2023-05-29T06:43:17;152.20;;;48.77;;
11835;SDS011;5977;51.972;7.640;2023-05-29T06:45:46;152.60;;;48.90;;
11835;SDS011;5977;51.972;7.640;2023-05-29T06:48:16;152.07;;;48.67;;
11835;SDS011;5977;51.972;7.640;2023-05-29T06:50:46;151.40;;;48.27;;
11835;SDS011;5977;51.972;7.640;2023-05-29T06:53:34;152.43;;;48.87;;
11835;SDS011;5977;51.972;7.640;2023-05-29T06:56:02;152.07;;;48.73;;
11835;SDS011;5977;51.972;7.640;2023-05-29T06:58:32;152.67;;;49.00;;
11835;SDS011;5977;51.972;7.640;2023-05-29T07:01:01;152.40;;;48.80;;
11835;SDS011;5977;51.972;7.640;2023-05-29T07:03:34;152.23;;;48.97;;
11835;SDS011;5977;51.972;7.640;2023-05-29T07:06:04;151.97;;;48.63;;
11835;SDS011;5977;51.972;7.640;2023-05-29T07:08:33;152.50;;;49.00;;
11835;SDS011;5977;51.972;7.640;2023-05-29T07:11:01;152.67;;;49.10;;
11835;SDS011;5977;51.972;7.640;2023-05-29T07:13:29;152.23;;;48.80;;
11835;SDS011;5977;51.972;7.640;2023-05-29T07:15:58;153.37;;;49.40;;
11835;SDS011;5977;51.972;7.640;2023-05-29T07:18:43;153.07;;;49.37;;
11835;SDS011;5977;51.972;7.640;2023-05-29T07:21:11;152.47;;;49.03;;
11835;SDS011;5977;51.972;7.640;2023-05-29T07:23:39;152.83;;;49.13;;
11835;SDS011;5977;51.972;7.640;2023-05-29T07:26:08;153.30;;;49.53;;
11835;SDS011;5977;51.972;7.640;2023-05-29T07:28:37;154.07;;;49.73;;
11835;SDS011;5977;51.972;7.640;2023-05-29T07:31:07;154.23;;;49.97;;
11835;SDS011;5977;51.972;7.640;2023-05-29T07:33:35;153.90;;;49.87;;
11835;SDS011;5977;51.972;7.640;2023-05-29T07:36:03;153.80;;;49.83;;
11835;SDS011;5977;51.972;7.640;2023-05-29T07:38:31;153.77;;;49.80;;
11835;SDS011;5977;51.972;7.640;2023-05-29T07:41:00;153.67;;;49.80;;
11835;SDS011;5977;51.972;7.640;2023-05-29T07:43:30;153.77;;;49.87;;
11835;SDS011;5977;51.972;7.640;2023-05-29T07:46:02;154.47;;;49.97;;
11835;SDS011;5977;51.972;7.640;2023-05-29T07:48:32;154.27;;;49.97;;
11835;SDS011;5977;51.972;7.640;2023-05-29T07:51:01;153.57;;;49.57;;
11835;SDS011;5977;51.972;7.640;2023-05-29T07:53:34;154.13;;;49.93;;
11835;SDS011;5977;51.972;7.640;2023-05-29T07:56:02;154.17;;;49.83;;
11835;SDS011;5977;51.972;7.640;2023-05-29T07:58:31;153.33;;;49.40;;
11835;SDS011;5977;51.972;7.640;2023-05-29T08:00:59;153.60;;;49.40;;
11835;SDS011;5977;51.972;7.640;2023-05-29T08:03:28;153.60;;;49.50;;
11835;SDS011;5977;51.972;7.640;2023-05-29T08:06:36;154.17;;;50.13;;
11835;SDS011;5977;51.972;7.640;2023-05-29T08:09:04;154.50;;;50.40;;
11835;SDS011;5977;51.972;7.640;2023-05-29T08:11:32;154.63;;;50.23;;
11835;SDS011;5977;51.972;7.640;2023-05-29T08:14:00;155.50;;;50.67;;
11835;SDS011;5977;51.972;7.640;2023-05-29T08:16:29;155.03;;;50.83;;
11835;SDS011;5977;51.972;7.640;2023-05-29T08:18:57;155.53;;;50.97;;
11835;SDS011;5977;51.972;7.640;2023-05-29T08:21:25;156.43;;;51.57;;
11835;SDS011;5977;51.972;7.640;2023-05-29T08:23:54;156.13;;;51.50;;
11835;SDS011;5977;51.972;7.640;2023-05-29T08:26:22;157.10;;;52.13;;
11835;SDS011;5977;51.972;7.640;2023-05-29T08:28:50;157.07;;;52.00;;
11835;SDS011;5977;51.972;7.640;2023-05-29T08:31:18;157.03;;;52.20;;
11835;SDS011;5977;51.972;7.640;2023-05-29T08:33:46;157.57;;;52.37;;
11835;SDS011;5977;51.972;7.640;2023-05-29T08:36:14;156.90;;;52.20;;
11835;SDS011;5977;51.972;7.640;2023-05-29T08:38:43;157.07;;;52.00;;
11835;SDS011;5977;51.972;7.640;2023-05-29T08:41:13;157.47;;;52.03;;
11835;SDS011;5977;51.972;7.640;2023-05-29T08:43:46;157.77;;;52.03;;
11835;SDS011;5977;51.972;7.640;2023-05-29T08:46:16;157.73;;;52.07;;
11835;SDS011;5977;51.972;7.640;2023-05-29T08:48:47;157.30;;;52.03;;
11835;SDS011;5977;51.972;7.640;2023-05-29T08:51:18;157.67;;;52.27;;
11835;SDS011;5977;51.972;7.640;2023-05-29T08:53:48;157.10;;;51.67;;
11835;SDS011;5977;51.972;7.640;2023-05-29T08:56:19;156.80;;;51.37;;
11835;SDS011;5977;51.972;7.640;2023-05-29T08:59:00;157.00;;;51.53;;
11835;SDS011;5977;51.972;7.640;2023-05-29T09:01:33;157.20;;;51.77;;
11835;SDS011;5977;51.972;7.640;2023-05-29T09:04:03;156.90;;;51.70;;
11835;SDS011;5977;51.972;7.640;2023-05-29T09:06:31;156.63;;;51.73;;
11835;SDS011;5977;51.972;7.640;2023-05-29T09:08:59;156.93;;;51.80;;
11835;SDS011;5977;51.972;7.640;2023-05-29T09:11:29;157.40;;;52.03;;
11835;SDS011;5977;51.972;7.640;2023-05-29T09:13:57;157.53;;;52.03;;
11835;SDS011;5977;51.972;7.640;2023-05-29T09:16:25;157.03;;;51.93;;
11835;SDS011;5977;51.972;7.640;2023-05-29T09:18:56;157.63;;;52.23;;
11835;SDS011;5977;51.972;7.640;2023-05-29T09:21:32;157.43;;;52.00;;
11835;SDS011;5977;51.972;7.640;2023-05-29T09:24:04;157.20;;;51.83;;
11835;SDS011;5977;51.972;7.640;2023-05-29T09:26:34;158.50;;;52.67;;
11835;SDS011;5977;51.972;7.640;2023-05-29T09:29:03;157.63;;;52.33;;
11835;SDS011;5977;51.972;7.640;2023-05-29T09:31:31;157.83;;;52.57;;
11835;SDS011;5977;51.972;7.640;2023-05-29T09:34:01;157.67;;;52.10;;
11835;SDS011;5977;51.972;7.640;2023-05-29T09:36:30;157.93;;;52.23;;
11835;SDS011;5977;51.972;7.640;2023-05-29T09:39:01;157.70;;;52.57;;
11835;SDS011;5977;51.972;7.640;2023-05-29T09:41:43;158.13;;;52.57;;
11835;SDS011;5977;51.972;7.640;2023-05-29T09:44:12;157.57;;;52.17;;
11835;SDS011;5977;51.972;7.640;2023-05-29T09:46:41;158.77;;;52.90;;
11835;SDS011;5977;51.972;7.640;2023-05-29T09:49:10;157.10;;;51.70;;
11835;SDS011;5977;51.972;7.640;2023-05-29T09:51:40;157.13;;;52.33;;
11835;SDS011;5977;51.972;7.640;2023-05-29T09:54:14;157.90;;;52.10;;
11835;SDS011;5977;51.972;7.640;2023-05-29T09:56:44;157.47;;;51.93;;
11835;SDS011;5977;51.972;7.640;2023-05-29T09:59:14;157.47;;;52.37;;
11835;SDS011;5977;51.972;7.640;2023-05-29T10:01:47;157.80;;;52.40;;
11835;SDS011;5977;51.972;7.640;2023-05-29T10:04:16;158.30;;;52.63;;
11835;SDS011;5977;51.972;7.640;2023-05-29T10:06:44;157.23;;;51.80;;
11835;SDS011;5977;51.972;7.640;2023-05-29T10:09:15;158.30;;;52.67;;
11835;SDS011;5977;51.972;7.640;2023-05-29T10:11:49;158.43;;;52.90;;
11835;SDS011;5977;51.972;7.640;2023-05-29T10:14:19;157.53;;;52.00;;
11835;SDS011;5977;51.972;7.640;2023-05-29T10:16:49;157.67;;;52.13;;
11835;SDS011;5977;51.972;7.640;2023-05-29T10:19:21;157.73;;;52.17;;
11835;SDS011;5977;51.972;7.640;2023-05-29T10:21:54;157.67;;;52.20;;
11835;SDS011;5977;51.972;7.640;2023-05-29T10:24:23;157.77;;;52.23;;
11835;SDS011;5977;51.972;7.640;2023-05-29T10:26:53;158.63;;;52.67;;
11835;SDS011;5977;51.972;7.640;2023-05-29T10:29:24;158.07;;;52.57;;
11835;SDS011;5977;51.972;7.640;2023-05-29T10:32:08;158.13;;;52.47;;
11835;SDS011;5977;51.972;7.640;2023-05-29T10:34:48;157.73;;;52.33;;
11835;SDS011;5977;51.972;7.640;2023-05-29T10:37:26;158.03;;;52.47;;
11835;SDS011;5977;51.972;7.640;2023-05-29T10:40:04;157.80;;;52.17;;
11835;SDS011;5977;51.972;7.640;2023-05-29T10:42:43;157.97;;;52.50;;
11835;SDS011;5977;51.972;7.640;2023-05-29T10:48:38;157.90;;;52.43;;
11835;SDS011;5977;51.972;7.640;2023-05-29T10:51:08;157.23;;;52.03;;
11835;SDS011;5977;51.972;7.640;2023-05-29T10:53:50;157.33;;;52.10;;
11835;SDS011;5977;51.972;7.640;2023-05-29T10:56:22;157.47;;;51.47;;
11835;SDS011;5977;51.972;7.640;2023-05-29T10:58:57;157.93;;;52.63;;
11835;SDS011;5977;51.972;7.640;2023-05-29T11:01:27;158.23;;;52.67;;
11835;SDS011;5977;51.972;7.640;2023-05-29T11:06:58;157.83;;;52.40;;
11835;SDS011;5977;51.972;7.640;2023-05-29T11:09:27;157.60;;;52.10;;
11835;SDS011;5977;51.972;7.640;2023-05-29T11:12:10;157.73;;;52.30;;
11835;SDS011;5977;51.972;7.640;2023-05-29T11:14:47;158.40;;;52.73;;
11835;SDS011;5977;51.972;7.640;2023-05-29T11:17:29;157.90;;;52.30;;
11835;SDS011;5977;51.972;7.640;2023-05-29T11:20:00;157.50;;;52.33;;
11835;SDS011;5977;51.972;7.640;2023-05-29T11:22:34;158.40;;;52.77;;
11835;SDS011;5977;51.972;7.640;2023-05-29T11:25:28;158.17;;;52.57;;
11835;SDS011;5977;51.972;7.640;2023-05-29T11:27:59;157.90;;;52.50;;
11835;SDS011;5977;51.972;7.640;2023-05-29T11:30:29;159.13;;;53.20;;
11835;SDS011;5977;51.972;7.640;2023-05-29T11:32:57;157.60;;;52.17;;
11835;SDS011;5977;51.972;7.640;2023-05-29T11:35:29;158.27;;;52.70;;
11835;SDS011;5977;51.972;7.640;2023-05-29T11:37:57;159.00;;;52.97;;
11835;SDS011;5977;51.972;7.640;2023-05-29T11:40:34;158.13;;;52.50;;
11835;SDS011;5977;51.972;7.640;2023-05-29T11:43:03;158.63;;;52.97;;
11835;SDS011;5977;51.972;7.640;2023-05-29T11:45:33;158.33;;;52.37;;
11835;SDS011;5977;51.972;7.640;2023-05-29T11:48:02;158.17;;;52.77;;
11835;SDS011;5977;51.972;7.640;2023-05-29T11:50:31;158.03;;;52.53;;
11835;SDS011;5977;51.972;7.640;2023-05-29T11:53:00;158.63;;;52.50;;
11835;SDS011;5977;51.972;7.640;2023-05-29T11:55:28;158.27;;;52.40;;
11835;SDS011;5977;51.972;7.640;2023-05-29T11:57:56;158.37;;;52.63;;
11835;SDS011;5977;51.972;7.640;2023-05-29T12:00:26;158.67;;;52.70;;
11835;SDS011;5977;51.972;7.640;2023-05-29T12:02:59;158.60;;;52.90;;
11835;SDS011;5977;51.972;7.640;2023-05-29T12:05:29;158.10;;;52.77;;
11835;SDS011;5977;51.972;7.640;2023-05-29T12:07:58;158.50;;;52.90;;
11835;SDS011;5977;51.972;7.640;2023-05-29T12:10:28;158.40;;;52.93;;
11835;SDS011;5977;51.972;7.640;2023-05-29T12:12:57;159.00;;;52.83;;
11835;SDS011;5977;51.972;7.640;2023-05-29T12:15:27;158.67;;;52.97;;
11835;SDS011;5977;51.972;7.640;2023-05-29T12:17:55;158.13;;;52.90;;
11835;SDS011;5977;51.972;7.640;2023-05-29T12:20:25;157.80;;;52.47;;
11835;SDS011;5977;51.972;7.640;2023-05-29T12:22:54;158.07;;;52.60;;
11835;SDS011;5977;51.972;7.640;2023-05-29T12:25:27;157.47;;;52.23;;
11835;SDS011;5977;51.972;7.640;2023-05-29T12:27:55;158.03;;;52.47;;
11835;SDS011;5977;51.972;7.640;2023-05-29T12:30:24;158.23;;;52.43;;
11835;SDS011;5977;51.972;7.640;2023-05-29T12:32:55;158.33;;;52.47;;
11835;SDS011;5977;51.972;7.640;2023-05-29T12:35:23;157.73;;;52.03;;
11835;SDS011;5977;51.972;7.640;2023-05-29T12:37:55;158.50;;;52.77;;
11835;SDS011;5977;51.972;7.640;2023-05-29T12:40:24;157.80;;;52.40;;
11835;SDS011;5977;51.972;7.640;2023-05-29T12:42:54;158.07;;;52.23;;
11835;SDS011;5977;51.972;7.640;2023-05-29T12:45:24;157.80;;;52.37;;
11835;SDS011;5977;51.972;7.640;2023-05-29T12:47:53;157.67;;;52.40;;
11835;SDS011;5977;51.972;7.640;2023-05-29T12:50:23;157.80;;;52.43;;
11835;SDS011;5977;51.972;7.640;2023-05-29T12:52:54;158.23;;;53.00;;
11835;SDS011;5977;51.972;7.640;2023-05-29T12:55:23;158.63;;;53.07;;
11835;SDS011;5977;51.972;7.640;2023-05-29T12:57:51;157.77;;;52.63;;
11835;SDS011;5977;51.972;7.640;2023-05-29T13:00:20;158.30;;;52.83;;
11835;SDS011;5977;51.972;7.640;2023-05-29T13:02:49;158.47;;;52.73;;
11835;SDS011;5977;51.972;7.640;2023-05-29T13:05:17;158.23;;;52.40;;
11835;SDS011;5977;51.972;7.640;2023-05-29T13:07:50;158.37;;;52.83;;
11835;SDS011;5977;51.972;7.640;2023-05-29T13:10:18;157.77;;;52.50;;
11835;SDS011;5977;51.972;7.640;2023-05-29T13:12:47;157.63;;;52.20;;
11835;SDS011;5977;51.972;7.640;2023-05-29T13:15:20;157.97;;;52.43;;
11835;SDS011;5977;51.972;7.640;2023-05-29T13:17:49;158.10;;;52.80;;
11835;SDS011;5977;51.972;7.640;2023-05-29T13:20:17;158.53;;;52.77;;
11835;SDS011;5977;51.972;7.640;2023-05-29T13:22:46;158.70;;;52.97;;
11835;SDS011;5977;51.972;7.640;2023-05-29T13:25:16;158.40;;;52.83;;
11835;SDS011;5977;51.972;7.640;2023-05-29T13:27:46;158.17;;;52.60;;
11835;SDS011;5977;51.972;7.640;2023-05-29T13:30:15;157.47;;;52.03;;
11835;SDS011;5977;51.972;7.640;2023-05-29T13:32:44;158.37;;;52.63;;
11835;SDS011;5977;51.972;7.640;2023-05-29T13:35:12;157.67;;;52.40;;
11835;SDS011;5977;51.972;7.640;2023-05-29T13:37:40;157.77;;;52.13;;
11835;SDS011;5977;51.972;7.640;2023-05-29T13:40:09;158.17;;;52.57;;
11835;SDS011;5977;51.972;7.640;2023-05-29T13:42:40;158.03;;;52.50;;
11835;SDS011;5977;51.972;7.640;2023-05-29T13:45:09;157.90;;;52.40;;
11835;SDS011;5977;51.972;7.640;2023-05-29T13:47:38;157.97;;;52.30;;
11835;SDS011;5977;51.972;7.640;2023-05-29T13:50:06;157.27;;;52.07;;
11835;SDS011;5977;51.972;7.640;2023-05-29T13:52:35;157.50;;;52.10;;
11835;SDS011;5977;51.972;7.640;2023-05-29T13:55:03;157.00;;;51.63;;
11835;SDS011;5977;51.972;7.640;2023-05-29T13:57:34;158.13;;;52.57;;
11835;SDS011;5977;51.972;7.640;2023-05-29T14:00:05;157.93;;;52.60;;
11835;SDS011;5977;51.972;7.640;2023-05-29T14:02:34;157.87;;;52.33;;
11835;SDS011;5977;51.972;7.640;2023-05-29T14:05:02;158.03;;;52.50;;
11835;SDS011;5977;51.972;7.640;2023-05-29T14:07:30;157.63;;;52.40;;
11835;SDS011;5977;51.972;7.640;2023-05-29T14:09:58;158.40;;;52.60;;
11835;SDS011;5977;51.972;7.640;2023-05-29T14:12:26;158.20;;;52.40;;
11835;SDS011;5977;51.972;7.640;2023-05-29T14:14:54;157.53;;;52.27;;
11835;SDS011;5977;51.972;7.640;2023-05-29T14:17:23;158.07;;;52.47;;
11835;SDS011;5977;51.972;7.640;2023-05-29T14:19:52;157.43;;;51.97;;
11835;SDS011;5977;51.972;7.640;2023-05-29T14:22:21;158.17;;;52.53;;
11835;SDS011;5977;51.972;7.640;2023-05-29T14:24:49;157.47;;;52.13;;
11835;SDS011;5977;51.972;7.640;2023-05-29T14:27:16;157.97;;;52.30;;
11835;SDS011;5977;51.972;7.640;2023-05-29T14:29:47;158.90;;;52.80;;
11835;SDS011;5977;51.972;7.640;2023-05-29T14:32:15;157.63;;;52.37;;
11835;SDS011;5977;51.972;7.640;2023-05-29T14:34:45;158.10;;;52.50;;
11835;SDS011;5977;51.972;7.640;2023-05-29T14:37:12;157.07;;;51.90;;
11835;SDS011;5977;51.972;7.640;2023-05-29T14:39:40;157.77;;;52.37;;
11835;SDS011;5977;51.972;7.640;2023-05-29T14:42:08;158.00;;;52.17;;
11835;SDS011;5977;51.972;7.640;2023-05-29T14:44:36;157.17;;;51.53;;